sensor_id;sensor_type;location;lat;lon;timestamp;P1;durP1;ratioP1;P2;durP2;ratioP2
55053;SDS011;40954;45.668;18.980;2023-06-22T00:01:52;17.25;;;15.65;;
55053;SDS011;40954;45.668;18.980;2023-06-22T00:04:18;16.67;;;15.02;;
55053;SDS011;40954;45.668;18.980;2023-06-22T00:06:43;15.65;;;14.25;;
55053;SDS011;40954;45.668;18.980;2023-06-22T00:09:09;16.83;;;15.43;;
55053;SDS011;40954;45.668;18.980;2023-06-22T00:11:36;16.15;;;14.65;;
55053;SDS011;40954;45.668;18.980;2023-06-22T00:14:02;16.75;;;15.18;;
55053;SDS011;40954;45.668;18.980;2023-06-22T00:16:28;17.33;;;15.63;;
55053;SDS011;40954;45.668;18.980;2023-06-22T00:18:54;18.60;;;16.92;;
55053;SDS011;40954;45.668;18.980;2023-06-22T00:21:20;17.30;;;15.38;;
55053;SDS011;40954;45.668;18.980;2023-06-22T00:23:46;17.45;;;15.55;;
55053;SDS011;40954;45.668;18.980;2023-06-22T00:26:12;19.25;;;16.27;;
55053;SDS011;40954;45.668;18.980;2023-06-22T00:28:38;21.95;;;16.17;;
55053;SDS011;40954;45.668;18.980;2023-06-22T00:31:04;17.38;;;15.23;;
55053;SDS011;40954;45.668;18.980;2023-06-22T00:33:30;14.00;;;12.60;;
55053;SDS011;40954;45.668;18.980;2023-06-22T00:35:56;13.60;;;12.30;;
55053;SDS011;40954;45.668;18.980;2023-06-22T00:38:22;19.23;;;16.23;;
55053;SDS011;40954;45.668;18.980;2023-06-22T00:40:48;17.23;;;15.48;;
55053;SDS011;40954;45.668;18.980;2023-06-22T00:43:14;15.88;;;14.38;;
55053;SDS011;40954;45.668;18.980;2023-06-22T00:45:40;15.43;;;13.82;;
55053;SDS011;40954;45.668;18.980;2023-06-22T00:48:05;17.65;;;15.52;;
55053;SDS011;40954;45.668;18.980;2023-06-22T00:50:32;17.85;;;16.05;;
55053;SDS011;40954;45.668;18.980;2023-06-22T00:53:08;19.95;;;16.00;;
55053;SDS011;40954;45.668;18.980;2023-06-22T00:55:38;15.90;;;13.32;;
55053;SDS011;40954;45.668;18.980;2023-06-22T00:58:08;14.38;;;12.90;;
55053;SDS011;40954;45.668;18.980;2023-06-22T01:00:36;13.98;;;12.57;;
55053;SDS011;40954;45.668;18.980;2023-06-22T01:03:02;16.27;;;13.90;;
55053;SDS011;40954;45.668;18.980;2023-06-22T01:05:29;13.98;;;12.45;;
55053;SDS011;40954;45.668;18.980;2023-06-22T01:10:33;15.40;;;14.10;;
55053;SDS011;40954;45.668;18.980;2023-06-22T01:13:06;17.30;;;14.10;;
55053;SDS011;40954;45.668;18.980;2023-06-22T01:15:44;15.27;;;13.75;;
55053;SDS011;40954;45.668;18.980;2023-06-22T01:18:31;19.73;;;15.70;;
55053;SDS011;40954;45.668;18.980;2023-06-22T01:21:01;25.30;;;17.73;;
55053;SDS011;40954;45.668;18.980;2023-06-22T01:23:36;22.95;;;17.95;;
55053;SDS011;40954;45.668;18.980;2023-06-22T01:29:07;16.55;;;14.82;;
55053;SDS011;40954;45.668;18.980;2023-06-22T01:31:37;19.13;;;15.63;;
55053;SDS011;40954;45.668;18.980;2023-06-22T01:34:05;16.95;;;15.45;;
55053;SDS011;40954;45.668;18.980;2023-06-22T01:36:32;16.35;;;14.75;;
55053;SDS011;40954;45.668;18.980;2023-06-22T01:38:59;18.50;;;16.50;;
55053;SDS011;40954;45.668;18.980;2023-06-22T01:41:27;16.98;;;15.30;;
55053;SDS011;40954;45.668;18.980;2023-06-22T01:43:54;23.45;;;15.20;;
55053;SDS011;40954;45.668;18.980;2023-06-22T01:46:21;17.52;;;15.38;;
55053;SDS011;40954;45.668;18.980;2023-06-22T01:48:48;21.25;;;15.32;;
55053;SDS011;40954;45.668;18.980;2023-06-22T01:51:15;20.48;;;14.90;;
55053;SDS011;40954;45.668;18.980;2023-06-22T01:53:41;18.00;;;16.17;;
55053;SDS011;40954;45.668;18.980;2023-06-22T01:56:07;18.77;;;16.88;;
55053;SDS011;40954;45.668;18.980;2023-06-22T01:58:34;19.77;;;16.73;;
55053;SDS011;40954;45.668;18.980;2023-06-22T02:03:33;18.58;;;16.67;;
55053;SDS011;40954;45.668;18.980;2023-06-22T02:06:10;20.05;;;15.65;;
55053;SDS011;40954;45.668;18.980;2023-06-22T02:08:49;17.45;;;15.57;;
55053;SDS011;40954;45.668;18.980;2023-06-22T02:11:20;20.75;;;15.77;;
55053;SDS011;40954;45.668;18.980;2023-06-22T02:13:47;17.30;;;15.63;;
55053;SDS011;40954;45.668;18.980;2023-06-22T02:16:14;17.50;;;15.73;;
55053;SDS011;40954;45.668;18.980;2023-06-22T02:18:51;19.85;;;16.52;;
55053;SDS011;40954;45.668;18.980;2023-06-22T02:21:20;19.02;;;16.90;;
55053;SDS011;40954;45.668;18.980;2023-06-22T02:23:47;18.25;;;16.40;;
55053;SDS011;40954;45.668;18.980;2023-06-22T02:26:13;18.23;;;16.48;;
55053;SDS011;40954;45.668;18.980;2023-06-22T02:28:40;21.05;;;18.25;;
55053;SDS011;40954;45.668;18.980;2023-06-22T02:31:06;25.52;;;19.27;;
55053;SDS011;40954;45.668;18.980;2023-06-22T02:33:32;21.10;;;17.45;;
55053;SDS011;40954;45.668;18.980;2023-06-22T02:35:58;19.08;;;17.05;;
55053;SDS011;40954;45.668;18.980;2023-06-22T02:38:24;20.15;;;16.48;;
55053;SDS011;40954;45.668;18.980;2023-06-22T02:40:50;17.98;;;15.60;;
55053;SDS011;40954;45.668;18.980;2023-06-22T02:43:15;17.05;;;15.35;;
55053;SDS011;40954;45.668;18.980;2023-06-22T02:45:41;17.30;;;15.30;;
55053;SDS011;40954;45.668;18.980;2023-06-22T02:48:07;15.13;;;13.63;;
55053;SDS011;40954;45.668;18.980;2023-06-22T02:50:33;17.15;;;14.98;;
55053;SDS011;40954;45.668;18.980;2023-06-22T02:52:59;17.25;;;15.50;;
55053;SDS011;40954;45.668;18.980;2023-06-22T02:55:24;22.83;;;15.90;;
55053;SDS011;40954;45.668;18.980;2023-06-22T02:57:50;23.40;;;16.23;;
55053;SDS011;40954;45.668;18.980;2023-06-22T03:00:17;19.55;;;17.52;;
55053;SDS011;40954;45.668;18.980;2023-06-22T03:02:47;19.45;;;16.65;;
55053;SDS011;40954;45.668;18.980;2023-06-22T03:05:14;14.32;;;12.80;;
55053;SDS011;40954;45.668;18.980;2023-06-22T03:07:43;18.70;;;16.42;;
55053;SDS011;40954;45.668;18.980;2023-06-22T03:10:09;22.38;;;17.15;;
55053;SDS011;40954;45.668;18.980;2023-06-22T03:12:39;18.00;;;16.20;;
55053;SDS011;40954;45.668;18.980;2023-06-22T03:15:06;17.80;;;15.98;;
55053;SDS011;40954;45.668;18.980;2023-06-22T03:17:34;20.75;;;18.08;;
55053;SDS011;40954;45.668;18.980;2023-06-22T03:20:00;15.00;;;13.75;;
55053;SDS011;40954;45.668;18.980;2023-06-22T03:22:33;15.02;;;13.48;;
55053;SDS011;40954;45.668;18.980;2023-06-22T03:24:59;15.32;;;13.90;;
55053;SDS011;40954;45.668;18.980;2023-06-22T03:27:25;23.45;;;18.65;;
55053;SDS011;40954;45.668;18.980;2023-06-22T03:29:51;21.95;;;18.13;;
55053;SDS011;40954;45.668;18.980;2023-06-22T03:32:17;18.83;;;14.68;;
55053;SDS011;40954;45.668;18.980;2023-06-22T03:34:44;15.77;;;14.18;;
55053;SDS011;40954;45.668;18.980;2023-06-22T03:37:13;14.18;;;12.77;;
55053;SDS011;40954;45.668;18.980;2023-06-22T03:39:40;15.23;;;12.95;;
55053;SDS011;40954;45.668;18.980;2023-06-22T03:42:06;19.52;;;17.42;;
55053;SDS011;40954;45.668;18.980;2023-06-22T03:44:32;16.35;;;14.80;;
55053;SDS011;40954;45.668;18.980;2023-06-22T03:47:00;21.27;;;18.45;;
55053;SDS011;40954;45.668;18.980;2023-06-22T03:49:27;16.20;;;13.98;;
55053;SDS011;40954;45.668;18.980;2023-06-22T03:51:53;21.52;;;14.10;;
55053;SDS011;40954;45.668;18.980;2023-06-22T03:54:19;17.17;;;13.23;;
55053;SDS011;40954;45.668;18.980;2023-06-22T03:56:45;14.48;;;12.60;;
55053;SDS011;40954;45.668;18.980;2023-06-22T03:59:11;15.52;;;13.93;;
55053;SDS011;40954;45.668;18.980;2023-06-22T04:01:37;15.82;;;13.35;;
55053;SDS011;40954;45.668;18.980;2023-06-22T04:04:03;16.92;;;13.35;;
55053;SDS011;40954;45.668;18.980;2023-06-22T04:06:29;17.80;;;16.02;;
55053;SDS011;40954;45.668;18.980;2023-06-22T04:08:55;29.00;;;19.10;;
55053;SDS011;40954;45.668;18.980;2023-06-22T04:11:21;35.17;;;26.10;;
55053;SDS011;40954;45.668;18.980;2023-06-22T04:13:47;31.38;;;28.02;;
55053;SDS011;40954;45.668;18.980;2023-06-22T04:16:14;25.90;;;19.45;;
55053;SDS011;40954;45.668;18.980;2023-06-22T04:18:40;33.40;;;26.55;;
55053;SDS011;40954;45.668;18.980;2023-06-22T04:21:06;36.25;;;29.48;;
55053;SDS011;40954;45.668;18.980;2023-06-22T04:23:33;27.08;;;24.45;;
55053;SDS011;40954;45.668;18.980;2023-06-22T04:25:59;29.23;;;25.77;;
55053;SDS011;40954;45.668;18.980;2023-06-22T04:28:25;31.00;;;27.77;;
55053;SDS011;40954;45.668;18.980;2023-06-22T04:30:51;31.92;;;25.80;;
55053;SDS011;40954;45.668;18.980;2023-06-22T04:33:17;35.50;;;31.50;;
55053;SDS011;40954;45.668;18.980;2023-06-22T04:35:46;33.95;;;30.40;;
55053;SDS011;40954;45.668;18.980;2023-06-22T04:38:12;32.58;;;28.40;;
55053;SDS011;40954;45.668;18.980;2023-06-22T04:40:39;25.38;;;22.83;;
55053;SDS011;40954;45.668;18.980;2023-06-22T04:43:05;32.72;;;29.23;;
55053;SDS011;40954;45.668;18.980;2023-06-22T04:45:31;21.60;;;19.50;;
55053;SDS011;40954;45.668;18.980;2023-06-22T04:47:58;25.73;;;21.90;;
55053;SDS011;40954;45.668;18.980;2023-06-22T04:50:24;28.48;;;25.27;;
55053;SDS011;40954;45.668;18.980;2023-06-22T04:52:50;24.92;;;20.05;;
55053;SDS011;40954;45.668;18.980;2023-06-22T04:55:16;27.58;;;21.65;;
55053;SDS011;40954;45.668;18.980;2023-06-22T04:57:47;28.23;;;25.30;;
55053;SDS011;40954;45.668;18.980;2023-06-22T05:00:22;24.85;;;22.33;;
55053;SDS011;40954;45.668;18.980;2023-06-22T05:02:48;25.40;;;21.38;;
55053;SDS011;40954;45.668;18.980;2023-06-22T05:05:15;36.60;;;28.83;;
55053;SDS011;40954;45.668;18.980;2023-06-22T05:07:44;29.20;;;24.70;;
55053;SDS011;40954;45.668;18.980;2023-06-22T05:10:13;23.42;;;18.95;;
55053;SDS011;40954;45.668;18.980;2023-06-22T05:12:40;36.70;;;33.00;;
55053;SDS011;40954;45.668;18.980;2023-06-22T05:15:09;46.90;;;42.00;;
55053;SDS011;40954;45.668;18.980;2023-06-22T05:17:35;28.80;;;25.75;;
55053;SDS011;40954;45.668;18.980;2023-06-22T05:20:06;47.60;;;41.43;;
55053;SDS011;40954;45.668;18.980;2023-06-22T05:22:33;43.40;;;38.63;;
55053;SDS011;40954;45.668;18.980;2023-06-22T05:24:59;50.53;;;42.80;;
55053;SDS011;40954;45.668;18.980;2023-06-22T05:27:25;44.08;;;37.88;;
55053;SDS011;40954;45.668;18.980;2023-06-22T05:29:51;29.52;;;26.35;;
55053;SDS011;40954;45.668;18.980;2023-06-22T05:32:17;49.28;;;34.65;;
55053;SDS011;40954;45.668;18.980;2023-06-22T05:34:44;43.35;;;36.45;;
55053;SDS011;40954;45.668;18.980;2023-06-22T05:37:10;45.90;;;38.78;;
55053;SDS011;40954;45.668;18.980;2023-06-22T05:39:37;52.75;;;41.67;;
55053;SDS011;40954;45.668;18.980;2023-06-22T05:42:07;43.10;;;36.33;;
55053;SDS011;40954;45.668;18.980;2023-06-22T05:44:33;27.15;;;22.33;;
55053;SDS011;40954;45.668;18.980;2023-06-22T05:47:00;22.63;;;19.92;;
55053;SDS011;40954;45.668;18.980;2023-06-22T05:49:27;38.40;;;33.80;;
55053;SDS011;40954;45.668;18.980;2023-06-22T05:51:57;30.30;;;25.83;;
55053;SDS011;40954;45.668;18.980;2023-06-22T05:54:23;30.15;;;27.05;;
55053;SDS011;40954;45.668;18.980;2023-06-22T05:56:49;26.67;;;23.65;;
55053;SDS011;40954;45.668;18.980;2023-06-22T05:59:16;24.30;;;20.50;;
55053;SDS011;40954;45.668;18.980;2023-06-22T06:01:42;22.08;;;18.88;;
55053;SDS011;40954;45.668;18.980;2023-06-22T06:04:08;33.28;;;29.98;;
55053;SDS011;40954;45.668;18.980;2023-06-22T06:06:34;30.42;;;26.88;;
55053;SDS011;40954;45.668;18.980;2023-06-22T06:09:05;19.73;;;17.63;;
55053;SDS011;40954;45.668;18.980;2023-06-22T06:11:32;20.73;;;18.63;;
55053;SDS011;40954;45.668;18.980;2023-06-22T06:13:58;32.45;;;27.02;;
55053;SDS011;40954;45.668;18.980;2023-06-22T06:16:25;22.58;;;19.98;;
55053;SDS011;40954;45.668;18.980;2023-06-22T06:18:51;26.67;;;23.95;;
55053;SDS011;40954;45.668;18.980;2023-06-22T06:21:18;22.90;;;20.63;;
55053;SDS011;40954;45.668;18.980;2023-06-22T06:23:44;29.30;;;26.15;;
55053;SDS011;40954;45.668;18.980;2023-06-22T06:26:10;27.52;;;24.63;;
55053;SDS011;40954;45.668;18.980;2023-06-22T06:28:36;20.92;;;18.85;;
55053;SDS011;40954;45.668;18.980;2023-06-22T06:31:02;29.48;;;26.40;;
55053;SDS011;40954;45.668;18.980;2023-06-22T06:33:32;24.95;;;19.48;;
55053;SDS011;40954;45.668;18.980;2023-06-22T06:35:58;27.67;;;24.85;;
55053;SDS011;40954;45.668;18.980;2023-06-22T06:38:26;26.58;;;23.88;;
55053;SDS011;40954;45.668;18.980;2023-06-22T06:40:53;24.52;;;21.95;;
55053;SDS011;40954;45.668;18.980;2023-06-22T06:43:19;24.52;;;20.27;;
55053;SDS011;40954;45.668;18.980;2023-06-22T06:45:45;29.13;;;22.50;;
55053;SDS011;40954;45.668;18.980;2023-06-22T06:48:11;24.80;;;21.92;;
55053;SDS011;40954;45.668;18.980;2023-06-22T06:50:37;23.83;;;21.17;;
55053;SDS011;40954;45.668;18.980;2023-06-22T06:53:03;25.77;;;23.00;;
55053;SDS011;40954;45.668;18.980;2023-06-22T06:55:30;24.38;;;21.80;;
55053;SDS011;40954;45.668;18.980;2023-06-22T06:57:58;24.42;;;21.63;;
55053;SDS011;40954;45.668;18.980;2023-06-22T07:00:24;24.88;;;22.40;;
55053;SDS011;40954;45.668;18.980;2023-06-22T07:02:51;20.52;;;18.48;;
55053;SDS011;40954;45.668;18.980;2023-06-22T07:05:17;22.52;;;20.35;;
55053;SDS011;40954;45.668;18.980;2023-06-22T07:07:43;22.90;;;20.48;;
55053;SDS011;40954;45.668;18.980;2023-06-22T07:10:10;20.70;;;17.77;;
55053;SDS011;40954;45.668;18.980;2023-06-22T07:12:36;21.00;;;19.08;;
55053;SDS011;40954;45.668;18.980;2023-06-22T07:17:28;22.30;;;19.95;;
55053;SDS011;40954;45.668;18.980;2023-06-22T07:19:54;21.17;;;19.05;;
55053;SDS011;40954;45.668;18.980;2023-06-22T07:22:20;20.65;;;18.83;;
55053;SDS011;40954;45.668;18.980;2023-06-22T07:24:47;21.13;;;19.02;;
55053;SDS011;40954;45.668;18.980;2023-06-22T07:29:41;18.05;;;16.25;;
55053;SDS011;40954;45.668;18.980;2023-06-22T07:32:08;16.60;;;14.77;;
55053;SDS011;40954;45.668;18.980;2023-06-22T07:34:34;15.38;;;13.93;;
55053;SDS011;40954;45.668;18.980;2023-06-22T07:37:00;16.42;;;14.55;;
55053;SDS011;40954;45.668;18.980;2023-06-22T07:39:26;15.30;;;13.68;;
55053;SDS011;40954;45.668;18.980;2023-06-22T07:41:53;17.90;;;15.30;;
55053;SDS011;40954;45.668;18.980;2023-06-22T07:44:19;15.48;;;13.95;;
55053;SDS011;40954;45.668;18.980;2023-06-22T07:46:45;15.85;;;14.15;;
55053;SDS011;40954;45.668;18.980;2023-06-22T07:49:11;16.63;;;14.23;;
55053;SDS011;40954;45.668;18.980;2023-06-22T07:51:37;14.52;;;13.15;;
55053;SDS011;40954;45.668;18.980;2023-06-22T07:54:03;18.98;;;13.60;;
55053;SDS011;40954;45.668;18.980;2023-06-22T07:56:29;14.93;;;13.43;;
55053;SDS011;40954;45.668;18.980;2023-06-22T07:58:55;15.25;;;13.85;;
55053;SDS011;40954;45.668;18.980;2023-06-22T08:01:24;15.25;;;13.52;;
55053;SDS011;40954;45.668;18.980;2023-06-22T08:03:50;19.27;;;15.05;;
55053;SDS011;40954;45.668;18.980;2023-06-22T08:06:16;16.02;;;14.52;;
55053;SDS011;40954;45.668;18.980;2023-06-22T08:08:42;16.48;;;14.77;;
55053;SDS011;40954;45.668;18.980;2023-06-22T08:11:09;19.23;;;15.90;;
55053;SDS011;40954;45.668;18.980;2023-06-22T08:13:34;15.30;;;13.77;;
55053;SDS011;40954;45.668;18.980;2023-06-22T08:16:00;16.45;;;14.65;;
55053;SDS011;40954;45.668;18.980;2023-06-22T08:18:26;15.27;;;13.82;;
55053;SDS011;40954;45.668;18.980;2023-06-22T08:20:52;14.43;;;13.13;;
55053;SDS011;40954;45.668;18.980;2023-06-22T08:23:18;16.33;;;13.05;;
55053;SDS011;40954;45.668;18.980;2023-06-22T08:25:45;15.18;;;12.75;;
55053;SDS011;40954;45.668;18.980;2023-06-22T08:28:13;17.10;;;13.55;;
55053;SDS011;40954;45.668;18.980;2023-06-22T08:30:39;21.55;;;13.15;;
55053;SDS011;40954;45.668;18.980;2023-06-22T08:33:05;14.90;;;13.38;;
55053;SDS011;40954;45.668;18.980;2023-06-22T08:35:31;14.73;;;13.43;;
55053;SDS011;40954;45.668;18.980;2023-06-22T08:37:57;21.95;;;13.38;;
55053;SDS011;40954;45.668;18.980;2023-06-22T08:40:24;22.38;;;18.63;;
55053;SDS011;40954;45.668;18.980;2023-06-22T08:42:51;23.42;;;20.17;;
55053;SDS011;40954;45.668;18.980;2023-06-22T08:45:17;19.25;;;14.73;;
55053;SDS011;40954;45.668;18.980;2023-06-22T08:47:43;18.20;;;14.63;;
55053;SDS011;40954;45.668;18.980;2023-06-22T08:50:09;17.17;;;13.73;;
55053;SDS011;40954;45.668;18.980;2023-06-22T08:52:36;15.63;;;13.18;;
55053;SDS011;40954;45.668;18.980;2023-06-22T08:55:02;16.10;;;13.02;;
55053;SDS011;40954;45.668;18.980;2023-06-22T08:57:28;13.80;;;12.23;;
55053;SDS011;40954;45.668;18.980;2023-06-22T08:59:55;17.92;;;12.02;;
55053;SDS011;40954;45.668;18.980;2023-06-22T09:02:24;16.95;;;11.45;;
55053;SDS011;40954;45.668;18.980;2023-06-22T09:04:50;13.65;;;12.38;;
55053;SDS011;40954;45.668;18.980;2023-06-22T09:07:20;14.25;;;11.02;;
55053;SDS011;40954;45.668;18.980;2023-06-22T09:09:47;12.77;;;11.30;;
55053;SDS011;40954;45.668;18.980;2023-06-22T09:12:13;17.30;;;15.52;;
55053;SDS011;40954;45.668;18.980;2023-06-22T09:14:39;13.73;;;12.43;;
55053;SDS011;40954;45.668;18.980;2023-06-22T09:19:31;11.65;;;9.75;;
55053;SDS011;40954;45.668;18.980;2023-06-22T09:21:58;11.50;;;10.38;;
55053;SDS011;40954;45.668;18.980;2023-06-22T09:24:25;11.10;;;10.07;;
55053;SDS011;40954;45.668;18.980;2023-06-22T09:26:51;10.55;;;9.10;;
55053;SDS011;40954;45.668;18.980;2023-06-22T09:29:17;11.38;;;10.10;;
55053;SDS011;40954;45.668;18.980;2023-06-22T09:31:43;11.05;;;10.02;;
55053;SDS011;40954;45.668;18.980;2023-06-22T09:34:09;10.65;;;9.57;;
55053;SDS011;40954;45.668;18.980;2023-06-22T09:36:35;16.65;;;10.43;;
55053;SDS011;40954;45.668;18.980;2023-06-22T09:39:02;12.57;;;9.23;;
55053;SDS011;40954;45.668;18.980;2023-06-22T09:41:31;10.90;;;9.10;;
55053;SDS011;40954;45.668;18.980;2023-06-22T09:43:57;10.30;;;9.35;;
55053;SDS011;40954;45.668;18.980;2023-06-22T09:46:23;10.30;;;9.27;;
55053;SDS011;40954;45.668;18.980;2023-06-22T09:48:53;14.48;;;9.77;;
55053;SDS011;40954;45.668;18.980;2023-06-22T09:51:19;10.48;;;9.43;;
55053;SDS011;40954;45.668;18.980;2023-06-22T09:53:46;10.45;;;9.48;;
55053;SDS011;40954;45.668;18.980;2023-06-22T09:56:13;14.25;;;9.30;;
55053;SDS011;40954;45.668;18.980;2023-06-22T09:58:42;10.00;;;8.98;;
55053;SDS011;40954;45.668;18.980;2023-06-22T10:01:08;10.60;;;8.20;;
55053;SDS011;40954;45.668;18.980;2023-06-22T10:03:39;10.43;;;8.13;;
55053;SDS011;40954;45.668;18.980;2023-06-22T10:06:06;9.40;;;8.45;;
55053;SDS011;40954;45.668;18.980;2023-06-22T10:08:32;14.63;;;8.50;;
55053;SDS011;40954;45.668;18.980;2023-06-22T10:10:58;8.32;;;7.55;;
55053;SDS011;40954;45.668;18.980;2023-06-22T10:13:24;10.05;;;8.30;;
55053;SDS011;40954;45.668;18.980;2023-06-22T10:15:50;15.57;;;13.95;;
55053;SDS011;40954;45.668;18.980;2023-06-22T10:18:17;12.45;;;8.68;;
55053;SDS011;40954;45.668;18.980;2023-06-22T10:20:44;9.25;;;7.32;;
55053;SDS011;40954;45.668;18.980;2023-06-22T10:23:11;8.50;;;7.65;;
55053;SDS011;40954;45.668;18.980;2023-06-22T10:25:37;7.25;;;6.65;;
55053;SDS011;40954;45.668;18.980;2023-06-22T10:28:02;9.60;;;7.20;;
55053;SDS011;40954;45.668;18.980;2023-06-22T10:30:28;8.73;;;7.82;;
55053;SDS011;40954;45.668;18.980;2023-06-22T10:32:54;10.10;;;7.28;;
55053;SDS011;40954;45.668;18.980;2023-06-22T10:35:20;8.90;;;6.97;;
55053;SDS011;40954;45.668;18.980;2023-06-22T10:37:46;8.15;;;7.30;;
55053;SDS011;40954;45.668;18.980;2023-06-22T10:40:13;15.07;;;8.13;;
55053;SDS011;40954;45.668;18.980;2023-06-22T10:42:40;28.38;;;11.43;;
55053;SDS011;40954;45.668;18.980;2023-06-22T10:45:06;19.23;;;9.25;;
55053;SDS011;40954;45.668;18.980;2023-06-22T10:47:33;12.82;;;7.78;;
55053;SDS011;40954;45.668;18.980;2023-06-22T10:49:59;8.25;;;7.35;;
55053;SDS011;40954;45.668;18.980;2023-06-22T10:52:25;10.63;;;7.10;;
55053;SDS011;40954;45.668;18.980;2023-06-22T10:54:51;8.20;;;7.18;;
55053;SDS011;40954;45.668;18.980;2023-06-22T10:57:17;10.05;;;7.82;;
55053;SDS011;40954;45.668;18.980;2023-06-22T10:59:43;7.35;;;6.68;;
55053;SDS011;40954;45.668;18.980;2023-06-22T11:02:09;11.13;;;7.10;;
55053;SDS011;40954;45.668;18.980;2023-06-22T11:04:36;8.00;;;7.20;;
55053;SDS011;40954;45.668;18.980;2023-06-22T11:07:02;8.05;;;7.30;;
55053;SDS011;40954;45.668;18.980;2023-06-22T11:09:28;12.50;;;7.53;;
55053;SDS011;40954;45.668;18.980;2023-06-22T11:11:55;11.50;;;7.22;;
55053;SDS011;40954;45.668;18.980;2023-06-22T11:14:21;8.98;;;7.72;;
55053;SDS011;40954;45.668;18.980;2023-06-22T11:16:47;8.73;;;7.82;;
55053;SDS011;40954;45.668;18.980;2023-06-22T11:19:13;8.73;;;7.38;;
55053;SDS011;40954;45.668;18.980;2023-06-22T11:21:40;10.18;;;7.88;;
55053;SDS011;40954;45.668;18.980;2023-06-22T11:24:06;8.55;;;7.68;;
55053;SDS011;40954;45.668;18.980;2023-06-22T11:26:32;10.68;;;6.85;;
55053;SDS011;40954;45.668;18.980;2023-06-22T11:28:58;7.75;;;7.05;;
55053;SDS011;40954;45.668;18.980;2023-06-22T11:31:24;7.75;;;6.78;;
55053;SDS011;40954;45.668;18.980;2023-06-22T11:33:50;7.95;;;6.90;;
55053;SDS011;40954;45.668;18.980;2023-06-22T11:36:17;8.80;;;6.97;;
55053;SDS011;40954;45.668;18.980;2023-06-22T11:38:43;10.32;;;7.40;;
55053;SDS011;40954;45.668;18.980;2023-06-22T11:41:09;9.35;;;7.55;;
55053;SDS011;40954;45.668;18.980;2023-06-22T11:43:36;8.38;;;6.88;;
55053;SDS011;40954;45.668;18.980;2023-06-22T11:46:02;10.27;;;7.00;;
55053;SDS011;40954;45.668;18.980;2023-06-22T11:48:29;9.15;;;7.03;;
55053;SDS011;40954;45.668;18.980;2023-06-22T11:50:55;10.73;;;6.93;;
55053;SDS011;40954;45.668;18.980;2023-06-22T11:53:23;8.10;;;7.40;;
55053;SDS011;40954;45.668;18.980;2023-06-22T11:55:50;10.90;;;7.18;;
55053;SDS011;40954;45.668;18.980;2023-06-22T11:58:16;7.95;;;7.25;;
55053;SDS011;40954;45.668;18.980;2023-06-22T12:00:42;7.93;;;7.13;;
55053;SDS011;40954;45.668;18.980;2023-06-22T12:03:08;8.20;;;7.40;;
55053;SDS011;40954;45.668;18.980;2023-06-22T12:05:35;9.90;;;7.45;;
55053;SDS011;40954;45.668;18.980;2023-06-22T12:08:01;8.82;;;7.38;;
55053;SDS011;40954;45.668;18.980;2023-06-22T12:10:27;8.52;;;7.00;;
55053;SDS011;40954;45.668;18.980;2023-06-22T12:12:53;8.18;;;7.30;;
55053;SDS011;40954;45.668;18.980;2023-06-22T12:15:20;7.22;;;6.63;;
55053;SDS011;40954;45.668;18.980;2023-06-22T12:17:46;9.05;;;6.60;;
55053;SDS011;40954;45.668;18.980;2023-06-22T12:20:13;10.60;;;7.18;;
55053;SDS011;40954;45.668;18.980;2023-06-22T12:22:40;7.90;;;7.05;;
55053;SDS011;40954;45.668;18.980;2023-06-22T12:25:07;7.63;;;6.97;;
55053;SDS011;40954;45.668;18.980;2023-06-22T12:27:33;8.20;;;7.40;;
55053;SDS011;40954;45.668;18.980;2023-06-22T12:29:59;8.43;;;6.35;;
55053;SDS011;40954;45.668;18.980;2023-06-22T12:32:26;7.35;;;6.68;;
55053;SDS011;40954;45.668;18.980;2023-06-22T12:34:52;8.05;;;6.90;;
55053;SDS011;40954;45.668;18.980;2023-06-22T12:37:18;11.00;;;6.40;;
55053;SDS011;40954;45.668;18.980;2023-06-22T12:39:44;7.47;;;6.60;;
55053;SDS011;40954;45.668;18.980;2023-06-22T12:42:10;7.32;;;6.72;;
55053;SDS011;40954;45.668;18.980;2023-06-22T12:44:40;10.05;;;6.75;;
55053;SDS011;40954;45.668;18.980;2023-06-22T12:47:06;10.02;;;6.35;;
55053;SDS011;40954;45.668;18.980;2023-06-22T12:49:33;10.35;;;6.72;;
55053;SDS011;40954;45.668;18.980;2023-06-22T12:52:00;8.13;;;6.07;;
55053;SDS011;40954;45.668;18.980;2023-06-22T12:54:26;10.13;;;6.90;;
55053;SDS011;40954;45.668;18.980;2023-06-22T12:56:53;7.72;;;6.32;;
55053;SDS011;40954;45.668;18.980;2023-06-22T12:59:19;7.38;;;6.72;;
55053;SDS011;40954;45.668;18.980;2023-06-22T13:01:45;7.60;;;6.03;;
55053;SDS011;40954;45.668;18.980;2023-06-22T13:04:11;7.03;;;6.10;;
55053;SDS011;40954;45.668;18.980;2023-06-22T13:06:41;10.00;;;6.47;;
55053;SDS011;40954;45.668;18.980;2023-06-22T13:09:09;7.65;;;6.60;;
55053;SDS011;40954;45.668;18.980;2023-06-22T13:11:35;10.25;;;6.50;;
55053;SDS011;40954;45.668;18.980;2023-06-22T13:14:01;8.55;;;6.65;;
55053;SDS011;40954;45.668;18.980;2023-06-22T13:16:27;9.98;;;6.60;;
55053;SDS011;40954;45.668;18.980;2023-06-22T13:18:53;6.90;;;6.22;;
55053;SDS011;40954;45.668;18.980;2023-06-22T13:21:19;10.38;;;7.25;;
55053;SDS011;40954;45.668;18.980;2023-06-22T13:23:45;9.13;;;7.18;;
55053;SDS011;40954;45.668;18.980;2023-06-22T13:26:11;12.68;;;7.03;;
55053;SDS011;40954;45.668;18.980;2023-06-22T13:28:37;13.55;;;7.55;;
55053;SDS011;40954;45.668;18.980;2023-06-22T13:31:03;11.90;;;7.03;;
55053;SDS011;40954;45.668;18.980;2023-06-22T13:33:29;7.20;;;6.30;;
55053;SDS011;40954;45.668;18.980;2023-06-22T13:35:55;9.73;;;6.95;;
55053;SDS011;40954;45.668;18.980;2023-06-22T13:38:21;7.20;;;6.60;;
55053;SDS011;40954;45.668;18.980;2023-06-22T13:40:47;9.00;;;7.43;;
55053;SDS011;40954;45.668;18.980;2023-06-22T13:43:14;7.32;;;6.57;;
55053;SDS011;40954;45.668;18.980;2023-06-22T13:45:41;8.68;;;6.90;;
55053;SDS011;40954;45.668;18.980;2023-06-22T13:48:07;9.73;;;6.85;;
55053;SDS011;40954;45.668;18.980;2023-06-22T13:50:33;10.05;;;6.70;;
55053;SDS011;40954;45.668;18.980;2023-06-22T13:53:00;6.97;;;6.25;;
55053;SDS011;40954;45.668;18.980;2023-06-22T13:55:26;7.80;;;6.78;;
55053;SDS011;40954;45.668;18.980;2023-06-22T13:57:52;10.90;;;6.70;;
55053;SDS011;40954;45.668;18.980;2023-06-22T14:00:18;6.68;;;6.07;;
55053;SDS011;40954;45.668;18.980;2023-06-22T14:02:44;8.02;;;6.40;;
55053;SDS011;40954;45.668;18.980;2023-06-22T14:05:11;7.68;;;6.90;;
55053;SDS011;40954;45.668;18.980;2023-06-22T14:07:37;9.00;;;6.80;;
55053;SDS011;40954;45.668;18.980;2023-06-22T14:10:03;8.05;;;6.88;;
55053;SDS011;40954;45.668;18.980;2023-06-22T14:12:29;9.57;;;6.97;;
55053;SDS011;40954;45.668;18.980;2023-06-22T14:14:55;8.82;;;7.30;;
55053;SDS011;40954;45.668;18.980;2023-06-22T14:17:22;9.35;;;7.30;;
55053;SDS011;40954;45.668;18.980;2023-06-22T14:19:50;10.23;;;7.20;;
55053;SDS011;40954;45.668;18.980;2023-06-22T14:22:20;10.57;;;7.35;;
55053;SDS011;40954;45.668;18.980;2023-06-22T14:24:49;7.35;;;6.55;;
55053;SDS011;40954;45.668;18.980;2023-06-22T14:27:16;7.53;;;6.63;;
55053;SDS011;40954;45.668;18.980;2023-06-22T14:29:42;8.10;;;6.97;;